sensor_id;sensor_type;location;lat;lon;timestamp;pressure;altitude;pressure_sealevel;temperature;humidity
76331;BME280;65148;51.912;15.570;2023-05-16T00:12:06;100733.33;;;12.28;100.00
76331;BME280;65148;51.912;15.570;2023-05-16T00:27:08;100741.08;;;12.86;100.00
76331;BME280;65148;51.912;15.570;2023-05-16T00:42:10;100756.33;;;12.87;100.00
76331;BME280;65148;51.912;15.570;2023-05-16T00:57:10;100776.78;;;12.90;100.00
76331;BME280;65148;51.912;15.570;2023-05-16T01:12:38;100788.47;;;12.63;100.00
76331;BME280;65148;51.912;15.570;2023-05-16T01:27:42;100803.13;;;12.67;100.00
76331;BME280;65148;51.912;15.570;2023-05-16T01:42:46;100803.82;;;12.59;100.00
76331;BME280;65148;51.912;15.570;2023-05-16T01:58:13;100829.91;;;12.32;100.00
76331;BME280;65148;51.912;15.570;2023-05-16T02:13:18;100849.55;;;11.92;100.00
76331;BME280;65148;51.912;15.570;2023-05-16T02:28:19;100836.95;;;11.72;100.00
76331;BME280;65148;51.912;15.570;2023-05-16T02:43:20;100856.69;;;11.40;100.00
76331;BME280;65148;51.912;15.570;2023-05-16T02:58:35;100883.55;;;10.94;100.00
76331;BME280;65148;51.912;15.570;2023-05-16T03:13:42;100895.39;;;10.79;100.00
76331;BME280;65148;51.912;15.570;2023-05-16T03:28:43;100894.25;;;10.85;100.00
76331;BME280;65148;51.912;15.570;2023-05-16T03:43:44;100921.48;;;10.85;100.00
76331;BME280;65148;51.912;15.570;2023-05-16T03:59:01;100930.37;;;11.01;100.00
76331;BME280;65148;51.912;15.570;2023-05-16T04:14:01;100952.80;;;11.22;100.00
76331;BME280;65148;51.912;15.570;2023-05-16T04:29:03;100974.69;;;11.46;100.00
76331;BME280;65148;51.912;15.570;2023-05-16T04:44:04;100999.63;;;11.58;100.00
76331;BME280;65148;51.912;15.570;2023-05-16T04:59:25;101008.67;;;11.87;100.00
76331;BME280;65148;51.912;15.570;2023-05-16T05:14:26;101033.89;;;12.27;100.00
76331;BME280;65148;51.912;15.570;2023-05-16T05:29:27;101038.94;;;12.38;100.00
76331;BME280;65148;51.912;15.570;2023-05-16T05:44:29;101067.91;;;13.01;100.00
76331;BME280;65148;51.912;15.570;2023-05-16T05:59:50;101090.67;;;13.52;100.00
76331;BME280;65148;51.912;15.570;2023-05-16T06:14:51;101113.55;;;13.62;100.00
76331;BME280;65148;51.912;15.570;2023-05-16T06:29:53;101133.70;;;13.66;100.00
76331;BME280;65148;51.912;15.570;2023-05-16T06:44:54;101140.94;;;13.75;100.00
76331;BME280;65148;51.912;15.570;2023-05-16T07:00:16;101165.59;;;13.38;100.00
76331;BME280;65148;51.912;15.570;2023-05-16T07:15:17;101186.13;;;13.54;100.00
76331;BME280;65148;51.912;15.570;2023-05-16T07:30:18;101176.29;;;13.34;100.00
76331;BME280;65148;51.912;15.570;2023-05-16T07:45:21;101198.35;;;13.62;100.00
76331;BME280;65148;51.912;15.570;2023-05-16T08:00:41;101201.28;;;13.46;100.00
76331;BME280;65148;51.912;15.570;2023-05-16T08:15:42;101201.80;;;13.86;100.00
76331;BME280;65148;51.912;15.570;2023-05-16T08:30:43;101211.27;;;13.75;100.00
76331;BME280;65148;51.912;15.570;2023-05-16T08:45:44;101225.56;;;13.72;100.00
76331;BME280;65148;51.912;15.570;2023-05-16T09:01:07;101244.34;;;13.78;100.00
76331;BME280;65148;51.912;15.570;2023-05-16T09:16:12;101253.80;;;13.67;100.00
76331;BME280;65148;51.912;15.570;2023-05-16T09:31:20;101285.42;;;13.55;100.00
76331;BME280;65148;51.912;15.570;2023-05-16T09:46:53;101307.66;;;13.72;100.00
76331;BME280;65148;51.912;15.570;2023-05-16T10:01:57;101315.63;;;13.68;100.00
76331;BME280;65148;51.912;15.570;2023-05-16T10:17:00;101344.04;;;13.72;100.00
76331;BME280;65148;51.912;15.570;2023-05-16T10:32:29;101367.78;;;13.29;100.00
76331;BME280;65148;51.912;15.570;2023-05-16T10:47:32;101386.96;;;13.24;100.00
76331;BME280;65148;51.912;15.570;2023-05-16T11:02:40;101384.47;;;12.94;100.00
76331;BME280;65148;51.912;15.570;2023-05-16T11:17:41;101395.05;;;13.34;100.00
76331;BME280;65148;51.912;15.570;2023-05-16T11:32:55;101413.66;;;13.32;100.00
76331;BME280;65148;51.912;15.570;2023-05-16T11:48:01;101400.53;;;13.00;100.00
76331;BME280;65148;51.912;15.570;2023-05-16T12:03:03;101389.80;;;13.14;100.00
76331;BME280;65148;51.912;15.570;2023-05-16T12:18:05;101398.36;;;13.60;100.00
76331;BME280;65148;51.912;15.570;2023-05-16T12:33:21;101433.31;;;13.39;100.00
76331;BME280;65148;51.912;15.570;2023-05-16T12:48:23;101418.46;;;13.45;100.00
76331;BME280;65148;51.912;15.570;2023-05-16T13:03:28;101430.14;;;13.27;100.00
76331;BME280;65148;51.912;15.570;2023-05-16T13:18:29;101437.24;;;13.28;100.00
76331;BME280;65148;51.912;15.570;2023-05-16T13:33:45;101448.80;;;13.49;100.00
76331;BME280;65148;51.912;15.570;2023-05-16T13:48:46;101456.95;;;13.54;100.00
76331;BME280;65148;51.912;15.570;2023-05-16T14:03:51;101466.29;;;13.77;100.00
76331;BME280;65148;51.912;15.570;2023-05-16T14:18:52;101470.91;;;13.81;100.00
76331;BME280;65148;51.912;15.570;2023-05-16T14:34:11;101467.22;;;13.67;100.00
76331;BME280;65148;51.912;15.570;2023-05-16T14:49:12;101481.63;;;13.49;100.00
76331;BME280;65148;51.912;15.570;2023-05-16T15:04:13;101478.36;;;13.47;100.00
76331;BME280;65148;51.912;15.570;2023-05-16T15:19:14;101481.15;;;13.71;100.00
76331;BME280;65148;51.912;15.570;2023-05-16T15:34:36;101485.40;;;13.53;100.00
76331;BME280;65148;51.912;15.570;2023-05-16T15:49:38;101492.16;;;13.89;100.00
76331;BME280;65148;51.912;15.570;2023-05-16T16:04:39;101494.05;;;13.65;100.00
76331;BME280;65148;51.912;15.570;2023-05-16T16:19:45;101504.51;;;13.29;100.00
76331;BME280;65148;51.912;15.570;2023-05-16T16:35:01;101509.15;;;13.29;100.00
76331;BME280;65148;51.912;15.570;2023-05-16T16:50:06;101505.91;;;13.56;100.00
76331;BME280;65148;51.912;15.570;2023-05-16T17:05:14;101521.92;;;13.38;100.00
76331;BME280;65148;51.912;15.570;2023-05-16T17:24:19;101529.93;;;13.30;100.00
76331;BME280;65148;51.912;15.570;2023-05-16T17:54:28;101563.99;;;13.42;100.00
76331;BME280;65148;51.912;15.570;2023-05-16T18:25:10;101550.52;;;13.17;100.00
76331;BME280;65148;51.912;15.570;2023-05-16T18:40:11;101573.82;;;12.99;100.00
76331;BME280;65148;51.912;15.570;2023-05-16T18:55:25;101576.18;;;12.67;100.00
76331;BME280;65148;51.912;15.570;2023-05-16T19:10:26;101597.28;;;12.51;100.00
76331;BME280;65148;51.912;15.570;2023-05-16T19:25:27;101589.13;;;12.41;100.00
76331;BME280;65148;51.912;15.570;2023-05-16T19:40:28;101596.80;;;12.29;100.00
76331;BME280;65148;51.912;15.570;2023-05-16T19:55:49;101603.67;;;11.91;100.00
76331;BME280;65148;51.912;15.570;2023-05-16T20:10:50;101619.52;;;11.79;100.00
76331;BME280;65148;51.912;15.570;2023-05-16T20:25:53;101621.12;;;11.64;100.00
76331;BME280;65148;51.912;15.570;2023-05-16T20:40:54;101615.38;;;11.46;100.00
76331;BME280;65148;51.912;15.570;2023-05-16T20:56:14;101614.77;;;11.18;100.00
76331;BME280;65148;51.912;15.570;2023-05-16T21:11:15;101606.60;;;11.13;100.00
76331;BME280;65148;51.912;15.570;2023-05-16T21:26:16;101626.73;;;11.07;100.00
76331;BME280;65148;51.912;15.570;2023-05-16T21:41:18;101625.88;;;10.96;100.00
76331;BME280;65148;51.912;15.570;2023-05-16T21:56:40;101647.02;;;10.69;100.00
76331;BME280;65148;51.912;15.570;2023-05-16T22:11:41;101652.77;;;10.78;100.00
76331;BME280;65148;51.912;15.570;2023-05-16T22:26:42;101667.67;;;11.22;100.00
76331;BME280;65148;51.912;15.570;2023-05-16T22:41:43;101669.35;;;11.44;100.00
76331;BME280;65148;51.912;15.570;2023-05-16T22:57:04;101678.33;;;11.39;96.95
76331;BME280;65148;51.912;15.570;2023-05-16T23:12:06;101693.60;;;11.35;94.44
76331;BME280;65148;51.912;15.570;2023-05-16T23:27:07;101693.01;;;11.23;91.24
76331;BME280;65148;51.912;15.570;2023-05-16T23:42:08;101703.80;;;10.97;90.92
76331;BME280;65148;51.912;15.570;2023-05-16T23:57:29;101709.85;;;10.57;89.34
